createdAt,value
2018-03-02T00:01:28.548Z,80.45
2018-03-02T00:03:56.194Z,75.83
2018-03-02T00:06:23.786Z,87.90
2018-03-02T00:08:51.634Z,85.63
2018-03-02T00:11:19.228Z,87.77
2018-03-02T00:13:46.790Z,77.77
2018-03-02T00:16:14.649Z,83.03
2018-03-02T00:18:42.254Z,80.50
2018-03-02T00:21:09.827Z,102.03
2018-03-02T00:23:37.392Z,105.23
2018-03-02T00:26:04.996Z,128.25
2018-03-02T00:28:32.694Z,114.70
2018-03-02T00:31:00.262Z,119.23
2018-03-02T00:33:28.486Z,130.00
2018-03-02T00:35:56.371Z,103.47
2018-03-02T00:38:24.107Z,77.03
2018-03-02T00:40:51.708Z,80.50
2018-03-02T00:43:19.366Z,66.77
2018-03-02T00:45:49.775Z,73.03
2018-03-02T00:48:17.810Z,79.17
2018-03-02T00:50:45.372Z,76.23
2018-03-02T00:53:12.950Z,81.00
2018-03-02T00:55:40.610Z,84.90
2018-03-02T00:58:08.170Z,80.27
2018-03-02T01:00:35.728Z,77.93
2018-03-02T01:03:03.323Z,89.73
2018-03-02T01:05:30.909Z,77.30
2018-03-02T01:07:58.653Z,76.80
2018-03-02T01:10:26.272Z,72.12
2018-03-02T01:12:53.826Z,72.65
2018-03-02T01:15:21.432Z,77.97
2018-03-02T01:17:50.050Z,76.90
2018-03-02T01:20:17.620Z,71.33
2018-03-02T01:22:45.187Z,98.80
2018-03-02T01:25:12.792Z,74.53
2018-03-02T01:27:40.362Z,69.17
2018-03-02T01:30:08.000Z,70.27
2018-03-02T01:32:35.597Z,69.40
2018-03-02T01:35:03.154Z,67.63
2018-03-02T01:37:30.719Z,75.73
2018-03-02T01:39:58.358Z,80.27
2018-03-02T01:42:25.955Z,77.27
2018-03-02T01:44:53.580Z,73.27
2018-03-02T01:47:21.243Z,73.83
2018-03-02T01:49:48.907Z,78.83
2018-03-02T01:52:16.479Z,69.83
2018-03-02T01:54:44.066Z,74.73
2018-03-02T01:57:11.624Z,68.40
2018-03-02T01:59:39.191Z,74.47
2018-03-02T02:02:06.801Z,77.53
2018-03-02T02:04:34.370Z,70.43
2018-03-02T02:07:01.939Z,74.97
2018-03-02T02:09:29.643Z,70.97
2018-03-02T02:11:57.280Z,55.97
2018-03-02T02:14:24.849Z,44.03
2018-03-02T02:16:52.454Z,59.77
2018-03-02T02:19:20.068Z,88.63
2018-03-02T02:21:47.625Z,65.80
2018-03-02T02:24:15.229Z,69.70
2018-03-02T02:26:42.794Z,67.40
2018-03-02T02:29:10.361Z,81.03
2018-03-02T02:31:37.954Z,74.47
2018-03-02T02:34:05.626Z,68.90
2018-03-02T02:36:33.182Z,80.93
2018-03-02T02:39:00.783Z,76.10
2018-03-02T02:41:28.361Z,69.43
2018-03-02T02:43:55.990Z,74.03
2018-03-02T02:46:23.588Z,69.20
2018-03-02T02:48:51.146Z,71.87
2018-03-02T02:51:18.722Z,65.90
2018-03-02T02:53:46.408Z,78.30
2018-03-02T02:56:13.968Z,67.73
2018-03-02T02:58:41.588Z,75.40
2018-03-02T03:01:09.196Z,76.43
2018-03-02T03:03:36.762Z,77.40
2018-03-02T03:06:04.323Z,73.87
2018-03-02T03:08:31.923Z,84.00
2018-03-02T03:10:59.490Z,74.13
2018-03-02T03:13:27.169Z,77.63
2018-03-02T03:15:54.788Z,95.33
2018-03-02T03:18:22.363Z,55.27
2018-03-02T03:20:49.945Z,82.27
2018-03-02T03:23:17.531Z,98.33
2018-03-02T03:25:45.100Z,81.77
2018-03-02T03:28:12.667Z,60.43
2018-03-02T03:30:40.254Z,80.97
2018-03-02T03:33:07.813Z,84.27
2018-03-02T03:35:35.385Z,92.90
2018-03-02T03:38:02.987Z,78.23
2018-03-02T03:40:30.552Z,75.77
2018-03-02T03:42:58.184Z,80.03
2018-03-02T03:45:25.785Z,74.53
2018-03-02T03:47:53.346Z,75.20
2018-03-02T03:50:21.059Z,60.40
2018-03-02T03:52:48.728Z,70.70
2018-03-02T03:55:16.283Z,74.57
2018-03-02T03:57:43.842Z,68.07
2018-03-02T04:00:11.461Z,71.03
2018-03-02T04:02:39.027Z,73.77
2018-03-02T04:05:06.652Z,68.53
2018-03-02T04:07:34.309Z,64.37
2018-03-02T04:10:01.845Z,65.63
2018-03-02T04:12:29.409Z,73.87
2018-03-02T04:14:57.021Z,74.20
2018-03-02T04:17:24.588Z,65.07
2018-03-02T04:19:52.158Z,78.00
2018-03-02T04:22:19.765Z,70.63
2018-03-02T04:24:47.318Z,75.97
2018-03-02T04:27:14.887Z,78.00
2018-03-02T04:29:42.486Z,97.13
2018-03-02T04:32:10.057Z,99.97
2018-03-02T04:34:37.631Z,85.63
2018-03-02T04:37:05.238Z,86.93
2018-03-02T04:39:32.827Z,77.40
2018-03-02T04:42:00.390Z,85.90
2018-03-02T04:44:28.034Z,76.67
2018-03-02T04:46:55.606Z,65.17
2018-03-02T04:49:23.175Z,78.70
2018-03-02T04:51:50.782Z,99.70
2018-03-02T04:54:18.351Z,94.23
2018-03-02T04:56:45.902Z,84.43
2018-03-02T04:59:13.498Z,84.80
2018-03-02T05:01:41.136Z,96.67
2018-03-02T05:04:08.698Z,87.47
2018-03-02T05:06:36.399Z,96.78
2018-03-02T05:09:04.129Z,118.53
2018-03-02T05:11:31.866Z,108.93
2018-03-02T05:13:59.470Z,98.43
2018-03-02T05:16:27.029Z,100.27
2018-03-02T05:18:54.594Z,105.60
2018-03-02T05:21:22.200Z,121.67
2018-03-02T05:23:49.800Z,106.53
2018-03-02T05:26:17.363Z,99.87
2018-03-02T05:28:45.089Z,106.70
2018-03-02T05:31:12.666Z,106.73
2018-03-02T05:33:40.223Z,96.13
2018-03-02T05:36:07.860Z,92.03
2018-03-02T05:38:35.435Z,143.83
2018-03-02T05:41:02.997Z,107.10
2018-03-02T05:43:30.599Z,98.63
2018-03-02T05:45:58.173Z,113.37
2018-03-02T05:48:25.746Z,94.40
2018-03-02T05:50:53.345Z,98.90
2018-03-02T05:53:20.910Z,91.60
2018-03-02T05:55:48.466Z,104.17
2018-03-02T05:58:16.062Z,93.83
2018-03-02T06:00:43.664Z,95.93
2018-03-02T06:03:11.226Z,79.00
2018-03-02T06:05:38.851Z,90.77
2018-03-02T06:08:06.410Z,105.03
2018-03-02T06:10:33.988Z,90.33
2018-03-02T06:13:01.588Z,98.80
2018-03-02T06:15:29.144Z,103.67
2018-03-02T06:17:56.721Z,109.73
2018-03-02T06:20:24.318Z,122.43
2018-03-02T06:22:51.885Z,88.80
2018-03-02T06:25:19.480Z,107.37
2018-03-02T06:27:47.164Z,116.13
2018-03-02T06:30:14.799Z,86.73
2018-03-02T06:32:42.368Z,83.80
2018-03-02T06:35:09.973Z,98.67
2018-03-02T06:37:37.541Z,87.17
2018-03-02T06:40:05.174Z,99.50
2018-03-02T06:42:32.796Z,100.93
2018-03-02T06:45:00.362Z,92.17
2018-03-02T06:47:27.939Z,116.70
2018-03-02T06:49:56.454Z,136.53
2018-03-02T06:52:24.023Z,138.30
2018-03-02T06:54:51.599Z,152.37
2018-03-02T06:57:19.195Z,142.63
2018-03-02T06:59:46.888Z,141.10
2018-03-02T07:02:14.464Z,127.20
2018-03-02T07:04:42.095Z,140.03
2018-03-02T07:07:09.727Z,144.97
2018-03-02T07:09:37.294Z,132.37
2018-03-02T07:12:04.899Z,136.93
2018-03-02T07:14:32.477Z,131.20
2018-03-02T07:17:00.063Z,115.13
2018-03-02T07:19:27.766Z,138.80
2018-03-02T07:21:55.336Z,114.90
2018-03-02T07:24:22.908Z,140.10
2018-03-02T07:26:50.508Z,145.70
2018-03-02T07:29:18.090Z,122.20
2018-03-02T07:31:45.666Z,129.00
2018-03-02T07:34:13.266Z,139.87
2018-03-02T07:36:40.836Z,140.70
2018-03-02T07:39:08.410Z,180.37
2018-03-02T07:41:36.017Z,181.30
2018-03-02T07:44:03.592Z,161.67
2018-03-02T07:46:31.164Z,167.47
2018-03-02T07:48:58.758Z,139.60
2018-03-02T07:51:26.326Z,137.53
2018-03-02T07:53:54.005Z,137.53
2018-03-02T07:56:21.601Z,119.10
2018-03-02T07:58:49.174Z,140.23
2018-03-02T08:01:16.751Z,147.03
2018-03-02T08:03:44.360Z,143.73
2018-03-02T08:06:11.925Z,144.70
2018-03-02T08:08:39.637Z,128.27
2018-03-02T08:11:07.247Z,166.97
2018-03-02T08:13:34.798Z,125.50
2018-03-02T08:16:02.564Z,134.00
2018-03-02T08:18:30.167Z,106.90
2018-03-02T08:20:57.740Z,113.73
2018-03-02T08:23:25.309Z,122.17
2018-03-02T08:25:53.082Z,139.33
2018-03-02T08:28:20.860Z,122.67
2018-03-02T08:30:48.487Z,124.13
2018-03-02T08:33:16.094Z,118.60
2018-03-02T08:35:43.666Z,110.07
2018-03-02T08:38:11.219Z,117.87
2018-03-02T08:40:38.810Z,126.47
2018-03-02T08:43:06.449Z,106.03
2018-03-02T08:45:34.009Z,100.87
2018-03-02T08:48:01.619Z,107.67
2018-03-02T08:50:29.172Z,114.87
2018-03-02T08:52:56.736Z,96.97
2018-03-02T08:55:24.343Z,108.33
2018-03-02T08:57:51.915Z,111.00
2018-03-02T09:00:19.660Z,109.37
2018-03-02T09:02:47.279Z,120.83
2018-03-02T09:05:14.861Z,114.37
2018-03-02T09:07:42.459Z,183.70
2018-03-02T09:10:10.067Z,105.53
2018-03-02T09:12:37.629Z,108.90
2018-03-02T09:15:05.215Z,106.57
2018-03-02T09:17:32.819Z,108.67
2018-03-02T09:20:00.414Z,92.70
2018-03-02T09:22:27.985Z,77.20
2018-03-02T09:24:55.603Z,78.70
2018-03-02T09:27:23.323Z,97.73
2018-03-02T09:29:50.891Z,98.07
2018-03-02T09:32:18.496Z,86.67
2018-03-02T09:34:46.154Z,115.17
2018-03-02T09:37:13.711Z,113.80
2018-03-02T09:39:41.321Z,98.83
2018-03-02T09:42:09.121Z,105.93
2018-03-02T09:44:36.678Z,126.90
2018-03-02T09:47:04.274Z,132.60
2018-03-02T09:49:32.085Z,137.40
2018-03-02T09:51:59.764Z,131.07
2018-03-02T09:54:27.407Z,112.83
2018-03-02T09:56:55.088Z,155.77
2018-03-02T09:59:22.741Z,107.70
2018-03-02T10:01:50.358Z,119.73
2018-03-02T10:04:17.934Z,109.13
2018-03-02T10:06:45.573Z,110.33
2018-03-02T10:09:13.149Z,96.60
2018-03-02T10:11:40.719Z,105.50
2018-03-02T10:14:08.301Z,103.50
2018-03-02T10:16:35.902Z,101.17
2018-03-02T10:19:03.507Z,108.43
2018-03-02T10:21:31.330Z,95.53
2018-03-02T10:23:58.957Z,117.93
2018-03-02T10:26:26.516Z,97.37
2018-03-02T10:28:54.063Z,79.83
2018-03-02T10:31:21.745Z,120.77
2018-03-02T10:33:49.345Z,85.93
2018-03-02T10:36:17.066Z,97.73
2018-03-02T10:38:44.675Z,83.97
2018-03-02T10:41:12.391Z,99.87
2018-03-02T10:43:40.053Z,95.00
2018-03-02T10:46:07.689Z,120.43
2018-03-02T10:48:35.357Z,116.70
2018-03-02T10:51:02.949Z,114.93
2018-03-02T10:53:30.545Z,118.50
2018-03-02T10:55:58.106Z,80.87
2018-03-02T10:58:25.711Z,91.23
2018-03-02T11:00:53.486Z,78.07
2018-03-02T11:03:22.971Z,114.27
2018-03-02T11:05:50.545Z,103.30
2018-03-02T11:08:18.317Z,95.17
2018-03-02T11:10:45.932Z,80.40
2018-03-02T11:13:13.635Z,93.03
2018-03-02T11:15:41.258Z,79.43
2018-03-02T11:18:08.969Z,78.57
2018-03-02T11:20:36.810Z,94.37
2018-03-02T11:23:04.490Z,79.30
2018-03-02T11:25:32.047Z,74.90
2018-03-02T11:27:59.602Z,92.73
2018-03-02T11:30:27.226Z,55.80
2018-03-02T11:32:54.786Z,83.33
2018-03-02T11:35:22.373Z,82.50
2018-03-02T11:37:49.961Z,94.87
2018-03-02T11:40:17.529Z,88.20
2018-03-02T11:42:45.084Z,78.57
2018-03-02T11:45:12.840Z,71.07
2018-03-02T11:47:40.401Z,83.03
2018-03-02T11:50:07.950Z,77.67
2018-03-02T11:52:35.556Z,95.50
2018-03-02T11:55:03.121Z,85.93
2018-03-02T11:57:30.751Z,98.77
2018-03-02T11:59:58.336Z,110.70
2018-03-02T12:02:25.923Z,81.57
2018-03-02T12:04:53.488Z,118.23
2018-03-02T12:07:21.289Z,132.57
2018-03-02T12:09:50.169Z,121.00
2018-03-02T12:12:17.818Z,86.83
2018-03-02T12:14:47.271Z,78.60
2018-03-02T12:17:14.963Z,111.23
2018-03-02T12:19:42.509Z,97.80
2018-03-02T12:22:10.099Z,77.90
2018-03-02T12:24:37.658Z,78.57
2018-03-02T12:27:05.206Z,147.47
2018-03-02T12:29:32.877Z,84.10
2018-03-02T12:32:00.427Z,191.90
2018-03-02T12:34:27.992Z,135.03
2018-03-02T12:36:55.593Z,82.53
2018-03-02T12:39:23.151Z,99.17
2018-03-02T12:41:50.783Z,80.77
2018-03-02T12:44:18.362Z,162.57
2018-03-02T12:46:45.899Z,98.73
2018-03-02T12:49:13.472Z,136.13
2018-03-02T12:51:41.158Z,117.03
2018-03-02T12:54:08.732Z,111.90
2018-03-02T12:56:36.330Z,99.77
2018-03-02T12:59:04.041Z,128.70
2018-03-02T13:01:31.643Z,107.63
2018-03-02T13:03:59.195Z,168.57
2018-03-02T13:06:27.020Z,186.10
2018-03-02T13:08:54.565Z,139.40
2018-03-02T13:11:22.351Z,149.50
2018-03-02T13:13:50.515Z,162.50
2018-03-02T13:16:18.113Z,107.47
2018-03-02T13:18:45.736Z,119.83
2018-03-02T13:21:13.344Z,118.17
2018-03-02T13:23:40.899Z,108.47
2018-03-02T13:26:08.490Z,152.63
2018-03-02T13:28:51.022Z,127.73
2018-03-02T13:31:18.599Z,101.57
2018-03-02T13:33:58.051Z,95.03
2018-03-02T13:36:25.598Z,118.60
2018-03-02T13:38:53.140Z,108.33
2018-03-02T13:41:32.535Z,159.53
2018-03-02T13:44:00.239Z,135.20
2018-03-02T13:46:28.103Z,98.90
2018-03-02T13:49:07.575Z,141.67
2018-03-02T13:51:35.514Z,113.80
2018-03-02T13:54:03.183Z,117.83
2018-03-02T13:56:42.652Z,117.37
2018-03-02T13:59:10.259Z,117.07
2018-03-02T14:01:37.826Z,112.00
2018-03-02T14:04:17.362Z,115.93
2018-03-02T14:06:45.057Z,142.80
2018-03-02T14:09:13.439Z,127.17
2018-03-02T14:11:41.042Z,159.30
2018-03-02T14:14:08.595Z,145.33
2018-03-02T14:16:36.147Z,137.35
2018-03-02T14:19:03.924Z,129.47
2018-03-02T14:21:31.862Z,133.93
2018-03-02T14:24:00.875Z,101.93
2018-03-02T14:26:31.034Z,140.23
2018-03-02T14:29:00.662Z,140.03
2018-03-02T14:31:29.958Z,148.63
2018-03-02T14:34:00.078Z,177.67
2018-03-02T14:36:29.822Z,147.03
2018-03-02T14:38:59.800Z,132.83
2018-03-02T14:41:29.721Z,133.93
2018-03-02T14:43:58.877Z,149.10
2018-03-02T14:46:28.682Z,127.43
2018-03-02T14:48:58.583Z,144.80
2018-03-02T14:51:28.218Z,155.53
2018-03-02T14:53:57.981Z,141.10
2018-03-02T14:56:27.613Z,156.53
2018-03-02T14:58:56.696Z,140.17
2018-03-02T15:01:26.557Z,151.17
2018-03-02T15:03:56.032Z,133.33
2018-03-02T15:06:25.377Z,186.67
2018-03-02T15:08:54.839Z,152.37
2018-03-02T15:11:24.321Z,199.10
2018-03-02T15:13:53.884Z,208.50
2018-03-02T15:16:23.482Z,201.97
2018-03-02T15:18:53.205Z,188.17
2018-03-02T15:21:23.027Z,171.20
2018-03-02T15:23:52.576Z,164.53
2018-03-02T15:26:22.008Z,173.03
2018-03-02T15:28:51.898Z,172.10
2018-03-02T15:31:22.014Z,176.70
2018-03-02T15:33:51.955Z,191.80
2018-03-02T15:36:21.556Z,208.65
2018-03-02T15:38:51.317Z,163.00
2018-03-02T15:41:21.202Z,183.43
2018-03-02T15:43:50.632Z,176.10
2018-03-02T15:46:20.991Z,175.00
2018-03-02T15:48:50.911Z,191.63
2018-03-02T15:51:20.724Z,210.43
2018-03-02T15:53:48.487Z,166.17
2018-03-02T15:56:16.072Z,176.70
2018-03-02T15:58:43.649Z,198.67
2018-03-02T16:01:11.258Z,208.73
2018-03-02T16:03:38.952Z,250.53
2018-03-02T16:06:06.530Z,218.30
2018-03-02T16:08:34.239Z,172.33
2018-03-02T16:11:01.830Z,151.23
2018-03-02T16:13:29.401Z,179.53
2018-03-02T16:15:56.955Z,158.47
2018-03-02T16:18:24.584Z,156.47
2018-03-02T16:20:52.138Z,150.53
2018-03-02T16:23:20.003Z,154.07
2018-03-02T16:25:47.833Z,201.93
2018-03-02T16:28:15.465Z,173.57
2018-03-02T16:30:43.198Z,195.00
2018-03-02T16:33:10.840Z,193.47
2018-03-02T16:35:38.397Z,165.93
2018-03-02T16:38:05.955Z,187.63
2018-03-02T16:40:34.665Z,209.63
2018-03-02T16:43:02.237Z,185.55
2018-03-02T16:45:29.978Z,188.13
2018-03-02T16:47:57.570Z,178.00
2018-03-02T16:50:25.211Z,178.53
2018-03-02T16:52:52.801Z,165.73
2018-03-02T16:55:20.455Z,227.47
2018-03-02T16:57:48.927Z,158.37
2018-03-02T17:00:16.564Z,172.63
2018-03-02T17:02:44.162Z,169.60
2018-03-02T17:05:11.708Z,159.67
2018-03-02T17:07:39.256Z,196.50
2018-03-02T17:10:06.863Z,177.53
2018-03-02T17:12:34.425Z,164.93
2018-03-02T17:15:01.975Z,115.83
2018-03-02T17:17:29.554Z,127.10
2018-03-02T17:19:57.100Z,161.00
2018-03-02T17:22:24.688Z,141.77
2018-03-02T17:24:52.524Z,141.73
2018-03-02T17:27:20.113Z,252.10
2018-03-02T17:29:47.692Z,210.53
2018-03-02T17:32:15.622Z,188.33
2018-03-02T17:34:48.847Z,217.63
2018-03-02T17:37:16.577Z,168.20
2018-03-02T17:39:44.122Z,154.47
2018-03-02T17:42:11.694Z,210.27
2018-03-02T17:44:39.554Z,209.17
2018-03-02T17:47:07.255Z,199.00
2018-03-02T17:49:34.805Z,234.87
2018-03-02T17:52:02.409Z,172.53
2018-03-02T17:54:29.972Z,174.30
2018-03-02T17:56:57.698Z,175.93
2018-03-02T17:59:25.355Z,154.07
2018-03-02T18:01:52.931Z,146.43
2018-03-02T18:04:20.536Z,333.07
2018-03-02T18:06:48.133Z,243.40
2018-03-02T18:09:15.713Z,182.13
2018-03-02T18:11:43.287Z,182.03
2018-03-02T18:14:10.923Z,305.43
2018-03-02T18:16:38.614Z,170.17
2018-03-02T18:19:06.194Z,144.37
2018-03-02T18:21:33.809Z,135.33
2018-03-02T18:24:01.384Z,130.83
2018-03-02T18:26:28.936Z,186.80
2018-03-02T18:28:56.527Z,178.43
2018-03-02T18:31:24.105Z,169.30
2018-03-02T18:33:51.659Z,182.47
2018-03-02T18:36:20.083Z,177.07
2018-03-02T18:38:47.963Z,169.70
2018-03-02T18:41:15.579Z,209.03
2018-03-02T18:43:43.546Z,249.17
2018-03-02T18:46:11.103Z,175.30
2018-03-02T18:48:38.829Z,171.77
2018-03-02T18:51:06.502Z,186.27
2018-03-02T18:53:34.058Z,204.17
2018-03-02T18:56:01.604Z,193.57
2018-03-02T18:58:29.192Z,159.27
2018-03-02T19:00:56.732Z,180.33
2018-03-02T19:03:24.342Z,174.00
2018-03-02T19:05:51.900Z,179.33
2018-03-02T19:08:19.456Z,181.70
2018-03-02T19:10:47.000Z,159.30
2018-03-02T19:13:14.591Z,149.57
2018-03-02T19:15:42.148Z,151.80
2018-03-02T19:18:09.695Z,148.20
2018-03-02T19:20:37.301Z,134.77
2018-03-02T19:23:04.869Z,127.50
2018-03-02T19:25:32.487Z,134.43
2018-03-02T19:28:00.202Z,140.40
2018-03-02T19:30:27.872Z,149.67
2018-03-02T19:32:55.492Z,149.47
2018-03-02T19:35:23.228Z,179.23
2018-03-02T19:37:51.267Z,171.10
2018-03-02T19:40:19.188Z,171.63
2018-03-02T19:42:47.068Z,164.33
2018-03-02T19:45:15.055Z,174.83
2018-03-02T19:47:43.123Z,147.90
2018-03-02T19:50:10.864Z,137.13
2018-03-02T19:52:38.830Z,196.63
2018-03-02T19:55:06.821Z,179.83
2018-03-02T19:57:34.716Z,213.17
2018-03-02T20:00:02.784Z,180.37
2018-03-02T20:02:30.848Z,164.83
2018-03-02T20:04:58.448Z,169.97
2018-03-02T20:07:26.162Z,192.77
2018-03-02T20:09:54.052Z,184.63
2018-03-02T20:12:21.888Z,147.70
2018-03-02T20:14:49.787Z,133.33
2018-03-02T20:17:17.637Z,129.60
2018-03-02T20:19:45.486Z,125.47
2018-03-02T20:22:13.051Z,152.73
2018-03-02T20:24:40.663Z,136.77
2018-03-02T20:27:08.313Z,160.60
2018-03-02T20:29:35.862Z,142.97
2018-03-02T20:32:03.443Z,148.03
2018-03-02T20:34:30.999Z,150.30
2018-03-02T20:36:58.627Z,162.80
2018-03-02T20:39:26.208Z,162.70
2018-03-02T20:41:53.762Z,171.43
2018-03-02T20:44:21.369Z,166.57
2018-03-02T20:46:48.981Z,160.83
2018-03-02T20:49:16.521Z,171.80
2018-03-02T20:51:44.059Z,158.90
2018-03-02T20:54:11.670Z,143.43
2018-03-02T20:56:39.213Z,163.77
2018-03-02T20:59:06.766Z,182.13
2018-03-02T21:01:34.345Z,180.93
2018-03-02T21:04:01.888Z,189.17
2018-03-02T21:06:29.447Z,186.63
2018-03-02T21:08:57.044Z,180.90
2018-03-02T21:11:24.599Z,162.60
2018-03-02T21:13:52.151Z,174.87
2018-03-02T21:16:19.727Z,177.57
2018-03-02T21:18:47.271Z,181.37
2018-03-02T21:21:14.823Z,159.30
2018-03-02T21:23:42.418Z,155.73
2018-03-02T21:26:09.969Z,154.23
2018-03-02T21:28:37.601Z,210.53
2018-03-02T21:31:05.189Z,210.77
2018-03-02T21:33:32.753Z,222.53
2018-03-02T21:36:00.300Z,205.20
2018-03-02T21:38:27.872Z,180.00
2018-03-02T21:40:55.425Z,199.50
2018-03-02T21:43:22.967Z,198.67
2018-03-02T21:45:50.540Z,220.40
2018-03-02T21:48:18.094Z,204.87
2018-03-02T21:50:45.649Z,193.57
2018-03-02T21:53:13.236Z,185.37
2018-03-02T21:55:40.781Z,202.63
2018-03-02T21:58:08.363Z,194.37
2018-03-02T22:00:35.952Z,191.93
2018-03-02T22:03:03.564Z,195.87
2018-03-02T22:05:31.105Z,195.33
2018-03-02T22:07:58.681Z,167.10
2018-03-02T22:10:26.243Z,214.57
2018-03-02T22:12:53.810Z,197.97
2018-03-02T22:15:21.545Z,188.67
2018-03-02T22:17:49.097Z,193.90
2018-03-02T22:20:16.651Z,195.07
2018-03-02T22:22:44.234Z,206.20
2018-03-02T22:25:11.787Z,199.10
2018-03-02T22:27:39.348Z,202.87
2018-03-02T22:30:06.926Z,190.63
2018-03-02T22:32:34.472Z,196.80
2018-03-02T22:35:02.029Z,206.57
2018-03-02T22:37:29.654Z,180.37
2018-03-02T22:39:57.206Z,175.67
2018-03-02T22:42:24.763Z,197.37
2018-03-02T22:44:52.356Z,179.30
2018-03-02T22:47:19.906Z,219.33
2018-03-02T22:49:47.451Z,168.47
2018-03-02T22:52:15.055Z,189.10
2018-03-02T22:54:42.693Z,192.93
2018-03-02T22:57:10.242Z,234.07
2018-03-02T22:59:37.824Z,270.40
2018-03-02T23:02:05.381Z,266.43
2018-03-02T23:04:32.943Z,221.83
2018-03-02T23:07:00.539Z,218.97
2018-03-02T23:09:28.086Z,201.43
2018-03-02T23:11:55.645Z,222.83
2018-03-02T23:14:23.239Z,205.87
2018-03-02T23:16:50.791Z,186.27
2018-03-02T23:19:18.361Z,178.97
2018-03-02T23:21:45.952Z,179.67
2018-03-02T23:24:13.510Z,226.77
2018-03-02T23:26:41.062Z,243.20
2018-03-02T23:29:08.647Z,230.97
2018-03-02T23:31:36.211Z,254.20
2018-03-02T23:34:03.772Z,254.50
2018-03-02T23:36:31.349Z,284.27
2018-03-02T23:38:58.901Z,237.67
2018-03-02T23:41:26.458Z,245.27
2018-03-02T23:43:54.048Z,237.97
2018-03-02T23:46:21.605Z,261.93
2018-03-02T23:48:49.162Z,258.93
2018-03-02T23:51:16.751Z,252.37
2018-03-02T23:53:44.517Z,247.03
2018-03-02T23:56:12.074Z,251.50
2018-03-02T23:58:39.654Z,251.77
